Time;durP1;ratioP1;P1;durP2;ratioP2;P2;SDS_P1;SDS_P2;PMS_P1;PMS_P2;Temp;Humidity;BMP_temperature;BMP_pressure;BME280_temperature;BME280_humidity;BME280_pressure;Samples;Min_cycle;Max_cycle;Signal;HPM_P1;HPM_P2
2023/08/27 00:00:49;;;;;;;0.20;0.20;;;13.30;99.90;;;;;;5041623;28;20683;-72
2023/08/27 00:03:14;;;;;;;0.10;0.10;;;13.30;99.90;;;;;;5039479;28;20048;-72
2023/08/27 00:05:43;;;;;;;0.10;0.10;;;13.30;99.90;;;;;;5042848;28;20144;-72
2023/08/27 00:08:10;;;;;;;0.08;0.08;;;13.20;99.90;;;;;;5041440;28;20403;-72
2023/08/27 00:10:36;;;;;;;0.43;0.40;;;13.20;99.90;;;;;;5038824;28;20087;-72
2023/08/27 00:13:02;;;;;;;0.20;0.20;;;13.20;99.90;;;;;;5041090;28;20453;-72
2023/08/27 00:15:27;;;;;;;0.10;0.10;;;13.20;99.90;;;;;;5040551;28;20041;-72
2023/08/27 00:17:53;;;;;;;0.22;0.22;;;13.20;99.90;;;;;;5043183;28;20072;-72
2023/08/27 00:20:18;;;;;;;0.22;0.22;;;13.20;99.90;;;;;;5041745;28;20040;-72
2023/08/27 00:22:44;;;;;;;0.40;0.40;;;13.20;99.90;;;;;;5043433;28;20131;-71
2023/08/27 00:25:10;;;;;;;0.20;0.10;;;13.20;99.90;;;;;;5026272;28;20072;-72
2023/08/27 00:27:35;;;;;;;0.77;0.43;;;13.20;99.90;;;;;;5040898;28;20403;-72
2023/08/27 00:30:05;;;;;;;0.10;0.10;;;13.20;99.90;;;;;;5037859;28;20102;-71
2023/08/27 00:32:34;;;;;;;0.20;0.20;;;13.20;99.90;;;;;;5039403;28;20044;-71
2023/08/27 00:35:00;;;;;;;0.35;0.30;;;13.20;99.90;;;;;;5074784;28;20114;-71
2023/08/27 00:37:26;;;;;;;0.30;0.20;;;13.20;99.90;;;;;;5042412;28;20045;-72
2023/08/27 00:39:52;;;;;;;0.20;0.20;;;13.20;99.90;;;;;;5058206;28;20040;-71
2023/08/27 00:42:18;;;;;;;0.17;0.17;;;13.20;99.90;;;;;;5039767;28;20033;-71
2023/08/27 00:44:44;;;;;;;0.65;0.20;;;13.30;99.90;;;;;;5045102;28;20087;-71
2023/08/27 00:47:11;;;;;;;0.40;0.40;;;13.30;99.90;;;;;;5039462;28;20355;-71
2023/08/27 00:49:38;;;;;;;0.00;0.00;;;13.30;99.90;;;;;;5037293;28;20049;-71
2023/08/27 00:52:05;;;;;;;0.20;0.20;;;13.40;99.90;;;;;;5043072;28;20044;-72
2023/08/27 00:54:32;;;;;;;0.20;0.20;;;13.40;99.90;;;;;;5043700;28;20041;-72
2023/08/27 00:56:58;;;;;;;0.10;0.10;;;13.40;99.90;;;;;;5040707;28;20048;-72
2023/08/27 00:59:24;;;;;;;1.08;0.40;;;13.40;99.90;;;;;;5045002;28;20056;-72
2023/08/27 01:01:51;;;;;;;0.10;0.10;;;13.50;99.90;;;;;;5042748;28;20063;-71
2023/08/27 01:04:17;;;;;;;0.95;0.20;;;13.50;99.90;;;;;;5043288;28;20048;-71
2023/08/27 01:06:43;;;;;;;0.10;0.10;;;13.50;99.90;;;;;;5039149;28;20047;-72
2023/08/27 01:09:23;;;;;;;0.05;0.05;;;13.50;99.90;;;;;;5047583;28;20477;-72
2023/08/27 01:11:57;;;;;;;0.73;0.28;;;13.50;99.90;;;;;;5041930;28;20713;-72
2023/08/27 01:14:27;;;;;;;0.15;0.15;;;13.40;99.90;;;;;;5039843;28;20472;-71
2023/08/27 01:16:53;;;;;;;0.20;0.20;;;13.40;99.90;;;;;;5043822;28;20391;-72
2023/08/27 01:19:22;;;;;;;0.28;0.25;;;13.40;99.90;;;;;;5047620;28;20037;-72
2023/08/27 01:21:48;;;;;;;0.32;0.32;;;13.40;99.90;;;;;;5039975;28;20294;-72
2023/08/27 01:24:13;;;;;;;0.30;0.10;;;13.50;99.90;;;;;;5044132;28;20091;-72
2023/08/27 01:27:18;;;;;;;0.13;0.13;;;13.40;99.90;;;;;;5045385;28;20032;-71
2023/08/27 01:30:05;;;;;;;0.30;0.30;;;13.40;99.90;;;;;;5044531;28;20063;-71
2023/08/27 01:32:39;;;;;;;0.28;0.28;;;13.40;99.90;;;;;;5045445;28;20045;-71
2023/08/27 01:35:06;;;;;;;0.65;0.63;;;13.30;99.90;;;;;;5048075;28;20111;-71
2023/08/27 01:37:32;;;;;;;0.20;0.15;;;13.30;99.90;;;;;;5046898;28;20045;-71
2023/08/27 01:40:00;;;;;;;0.20;0.20;;;13.30;99.90;;;;;;5045484;28;20060;-72
2023/08/27 01:42:27;;;;;;;0.88;0.20;;;13.20;99.90;;;;;;5044652;28;20056;-71
2023/08/27 01:44:52;;;;;;;0.17;0.17;;;13.20;99.90;;;;;;5044710;28;20041;-71
2023/08/27 01:47:18;;;;;;;0.20;0.20;;;13.20;99.90;;;;;;5045418;28;20041;-71
2023/08/27 01:49:44;;;;;;;0.47;0.47;;;13.20;99.90;;;;;;5043330;28;20072;-71
2023/08/27 01:52:09;;;;;;;0.10;0.10;;;13.20;99.90;;;;;;5043515;28;20407;-72
2023/08/27 01:54:36;;;;;;;0.32;0.30;;;13.20;99.90;;;;;;5046435;28;20119;-72
2023/08/27 01:57:03;;;;;;;1.27;0.45;;;13.10;99.90;;;;;;5059715;28;20056;-72
2023/08/27 01:59:28;;;;;;;0.10;0.10;;;13.10;99.90;;;;;;5043772;28;20041;-72
2023/08/27 02:01:54;;;;;;;0.20;0.20;;;13.10;99.90;;;;;;5043231;28;20041;-72
2023/08/27 02:04:20;;;;;;;0.60;0.60;;;13.10;99.90;;;;;;5048332;28;20040;-72
2023/08/27 02:06:45;;;;;;;0.10;0.10;;;13.10;99.90;;;;;;5042901;28;20033;-71
2023/08/27 02:09:11;;;;;;;0.25;0.25;;;13.10;99.90;;;;;;5045127;28;20041;-71
2023/08/27 02:11:37;;;;;;;0.17;0.17;;;13.00;99.90;;;;;;5046884;28;20032;-71
2023/08/27 02:14:03;;;;;;;0.13;0.13;;;13.00;99.90;;;;;;5041518;28;20037;-71
2023/08/27 02:16:29;;;;;;;0.32;0.32;;;13.00;99.90;;;;;;5042241;28;20411;-71
2023/08/27 02:18:55;;;;;;;0.30;0.30;;;13.00;99.90;;;;;;5045800;28;20041;-71
2023/08/27 02:21:21;;;;;;;0.38;0.38;;;13.00;99.90;;;;;;5044354;28;20136;-71
2023/08/27 02:23:46;;;;;;;0.22;0.22;;;13.00;99.90;;;;;;5044013;28;20091;-71
2023/08/27 02:26:12;;;;;;;0.30;0.22;;;13.00;99.90;;;;;;5041481;28;20033;-71
2023/08/27 02:28:37;;;;;;;0.30;0.30;;;13.00;99.90;;;;;;5044836;28;20079;-71
2023/08/27 02:31:05;;;;;;;0.10;0.10;;;13.00;99.90;;;;;;5044555;28;20086;-72
2023/08/27 02:33:35;;;;;;;0.15;0.15;;;13.00;99.90;;;;;;5044441;28;20045;-71
2023/08/27 02:36:01;;;;;;;0.68;0.68;;;12.90;99.90;;;;;;5042593;28;20045;-71
2023/08/27 02:38:28;;;;;;;0.73;0.13;;;13.00;99.90;;;;;;5044170;28;20033;-70
2023/08/27 02:40:54;;;;;;;0.50;0.50;;;13.00;99.90;;;;;;5043227;28;20353;-71
2023/08/27 02:43:22;;;;;;;0.30;0.30;;;13.00;99.90;;;;;;5041533;28;20044;-71
2023/08/27 02:45:48;;;;;;;0.22;0.22;;;13.00;99.90;;;;;;5058981;28;20041;-71
2023/08/27 02:48:14;;;;;;;1.63;0.80;;;13.00;99.90;;;;;;5044060;28;20075;-71
2023/08/27 02:50:39;;;;;;;0.57;0.47;;;13.00;99.90;;;;;;5027513;28;20037;-70
2023/08/27 02:53:05;;;;;;;0.95;0.63;;;13.10;99.90;;;;;;5044338;28;20040;-71
2023/08/27 02:55:31;;;;;;;0.65;0.50;;;13.10;99.90;;;;;;5046335;28;20033;-71
2023/08/27 02:57:58;;;;;;;1.75;0.95;;;13.00;99.90;;;;;;5044195;28;20045;-71
2023/08/27 03:00:25;;;;;;;0.93;0.35;;;13.10;99.90;;;;;;5046647;28;21458;-72
2023/08/27 03:02:51;;;;;;;0.40;0.40;;;13.10;99.90;;;;;;5075863;28;20037;-71
2023/08/27 03:05:17;;;;;;;0.35;0.35;;;13.20;99.90;;;;;;5077815;28;20369;-72
2023/08/27 03:07:52;;;;;;;1.13;0.55;;;13.20;99.90;;;;;;5041986;28;20126;-71
2023/08/27 03:10:18;;;;;;;1.38;0.57;;;13.20;99.90;;;;;;5043407;28;20040;-70
2023/08/27 03:12:43;;;;;;;0.10;0.10;;;13.20;99.90;;;;;;5035783;28;20057;-71
2023/08/27 03:15:09;;;;;;;0.10;0.10;;;13.30;99.90;;;;;;5045726;28;20047;-71
2023/08/27 03:17:35;;;;;;;0.10;0.10;;;13.30;99.90;;;;;;5042302;28;20029;-72
2023/08/27 03:20:00;;;;;;;1.42;0.45;;;13.30;99.90;;;;;;5032011;28;20557;-72
2023/08/27 03:22:27;;;;;;;0.43;0.43;;;13.30;99.90;;;;;;5046789;28;20044;-72
2023/08/27 03:24:54;;;;;;;0.52;0.52;;;13.30;99.90;;;;;;5047214;28;20407;-72
2023/08/27 03:27:20;;;;;;;0.55;0.38;;;13.30;99.90;;;;;;5041645;28;20037;-71
2023/08/27 03:29:45;;;;;;;0.38;0.38;;;13.40;99.90;;;;;;5038550;28;20056;-72
2023/08/27 03:32:13;;;;;;;0.45;0.45;;;13.40;99.90;;;;;;5043553;28;20499;-72
2023/08/27 03:34:39;;;;;;;0.15;0.13;;;13.40;99.90;;;;;;5063038;28;20037;-71
2023/08/27 03:37:04;;;;;;;0.43;0.43;;;13.40;99.90;;;;;;5043741;28;20395;-72
2023/08/27 03:39:30;;;;;;;0.63;0.10;;;13.40;99.90;;;;;;5042320;28;20483;-71
2023/08/27 03:41:56;;;;;;;0.10;0.10;;;13.40;99.90;;;;;;5046065;28;20160;-72
2023/08/27 03:44:24;;;;;;;0.05;0.05;;;13.40;99.90;;;;;;5045356;28;20047;-71
2023/08/27 03:46:49;;;;;;;1.27;1.20;;;13.40;99.90;;;;;;5042922;28;20029;-71
2023/08/27 03:49:15;;;;;;;0.38;0.25;;;13.40;99.90;;;;;;5041597;28;20198;-71
2023/08/27 03:51:44;;;;;;;0.35;0.35;;;13.40;99.90;;;;;;5041870;28;20054;-71
2023/08/27 03:54:10;;;;;;;0.38;0.20;;;13.30;99.90;;;;;;5043807;28;20053;-72
2023/08/27 03:56:36;;;;;;;0.25;0.22;;;13.30;99.90;;;;;;5039719;28;20046;-72
2023/08/27 03:59:02;;;;;;;0.10;0.10;;;13.30;99.90;;;;;;5044934;28;20130;-72
2023/08/27 04:01:28;;;;;;;2.28;0.43;;;13.20;99.90;;;;;;5043649;28;20055;-72
2023/08/27 04:03:54;;;;;;;0.47;0.47;;;13.20;99.90;;;;;;5044165;28;20037;-72
2023/08/27 04:06:20;;;;;;;0.40;0.40;;;13.10;99.90;;;;;;5044658;28;20032;-72
2023/08/27 04:08:48;;;;;;;0.57;0.20;;;13.10;99.90;;;;;;5045396;28;20128;-71
2023/08/27 04:11:15;;;;;;;0.35;0.35;;;13.00;99.90;;;;;;5047644;28;20044;-72
2023/08/27 04:13:41;;;;;;;0.20;0.20;;;13.00;99.90;;;;;;5082132;28;20549;-71
2023/08/27 04:16:08;;;;;;;0.22;0.22;;;13.00;99.90;;;;;;5079741;28;20041;-72
2023/08/27 04:18:35;;;;;;;0.30;0.25;;;13.00;99.90;;;;;;5045370;28;20038;-72
2023/08/27 04:21:01;;;;;;;0.10;0.10;;;13.00;99.90;;;;;;5043207;28;20037;-71
2023/08/27 04:23:27;;;;;;;0.73;0.70;;;13.00;99.90;;;;;;5042958;28;20037;-71
2023/08/27 04:25:53;;;;;;;0.43;0.43;;;13.00;99.90;;;;;;5044393;28;20056;-71
2023/08/27 04:28:19;;;;;;;1.10;0.90;;;13.00;99.90;;;;;;5043260;28;20040;-71
2023/08/27 04:30:49;;;;;;;0.10;0.10;;;12.90;99.90;;;;;;5044707;28;20051;-71
2023/08/27 04:33:18;;;;;;;1.23;0.52;;;12.90;99.90;;;;;;5043617;28;20462;-71
2023/08/27 04:35:48;;;;;;;0.10;0.10;;;12.90;99.90;;;;;;5047465;28;20044;-71
2023/08/27 04:38:13;;;;;;;0.20;0.20;;;12.90;99.90;;;;;;5080756;28;20122;-71
2023/08/27 04:40:39;;;;;;;0.15;0.15;;;12.90;99.90;;;;;;5048555;28;20041;-71
2023/08/27 04:43:04;;;;;;;0.45;0.32;;;12.90;99.90;;;;;;5046576;28;20094;-71
2023/08/27 04:45:31;;;;;;;0.08;0.03;;;12.90;99.90;;;;;;5047448;28;20498;-71
2023/08/27 04:47:57;;;;;;;0.52;0.52;;;13.00;99.90;;;;;;5077005;28;20044;-71
2023/08/27 04:50:23;;;;;;;0.20;0.20;;;13.00;99.90;;;;;;5051421;28;20036;-71
2023/08/27 04:52:48;;;;;;;0.22;0.22;;;13.00;99.90;;;;;;5048368;28;20041;-71
2023/08/27 04:55:14;;;;;;;0.95;0.30;;;13.10;99.90;;;;;;5050793;28;20556;-71
2023/08/27 04:57:39;;;;;;;0.45;0.40;;;13.10;99.90;;;;;;5044518;28;20037;-70
2023/08/27 05:00:20;;;;;;;0.88;0.50;;;13.10;99.90;;;;;;5048985;28;20037;-70
2023/08/27 05:02:49;;;;;;;1.10;1.00;;;13.20;99.90;;;;;;5047526;28;20080;-68
2023/08/27 05:05:16;;;;;;;1.63;0.90;;;13.30;99.90;;;;;;5047102;28;20044;-68
2023/08/27 05:07:42;;;;;;;0.20;0.20;;;13.40;99.90;;;;;;5045170;28;20502;-68
2023/08/27 05:10:08;;;;;;;1.83;0.85;;;13.50;99.90;;;;;;5049765;28;20040;-69
2023/08/27 05:12:34;;;;;;;3.63;0.57;;;13.50;99.90;;;;;;5046381;28;20399;-70
2023/08/27 05:15:00;;;;;;;0.93;0.50;;;13.60;99.90;;;;;;5050325;28;20029;-70
2023/08/27 05:17:25;;;;;;;0.65;0.65;;;13.60;99.90;;;;;;5077982;28;20041;-68
2023/08/27 05:19:52;;;;;;;0.40;0.40;;;13.60;99.90;;;;;;5040020;28;20473;-69
2023/08/27 05:22:17;;;;;;;2.40;1.35;;;13.70;99.90;;;;;;5049439;28;20131;-69
2023/08/27 05:24:43;;;;;;;0.30;0.30;;;13.70;99.90;;;;;;5044306;28;20119;-70
2023/08/27 05:27:11;;;;;;;0.43;0.38;;;13.70;99.90;;;;;;5047000;28;20049;-69
2023/08/27 05:29:36;;;;;;;1.08;0.38;;;13.80;99.90;;;;;;5041452;28;20125;-70
2023/08/27 05:32:02;;;;;;;3.63;0.45;;;13.80;99.90;;;;;;5035646;28;20119;-69
2023/08/27 05:34:28;;;;;;;1.35;0.95;;;13.90;99.90;;;;;;5051680;28;20037;-69
2023/08/27 05:36:54;;;;;;;3.10;0.77;;;13.80;99.90;;;;;;5045857;28;20044;-72
2023/08/27 05:39:19;;;;;;;0.10;0.10;;;13.90;99.90;;;;;;5049848;28;20036;-72
2023/08/27 05:41:45;;;;;;;0.90;0.85;;;13.90;99.90;;;;;;5048663;28;20036;-72
2023/08/27 05:44:11;;;;;;;0.25;0.20;;;13.90;99.90;;;;;;5047841;28;20044;-71
2023/08/27 05:46:36;;;;;;;0.73;0.30;;;13.90;99.90;;;;;;5044903;28;20045;-71
2023/08/27 05:49:04;;;;;;;1.95;0.70;;;13.90;99.90;;;;;;5046192;28;20040;-70
2023/08/27 05:51:30;;;;;;;0.30;0.30;;;13.90;99.90;;;;;;5047066;28;20033;-70
2023/08/27 05:53:56;;;;;;;0.17;0.17;;;13.90;99.90;;;;;;5042559;28;20037;-70
2023/08/27 06:00:05;;;;;;;0.60;0.60;;;14.00;99.90;;;;;;5048532;28;20549;-69
2023/08/27 06:02:30;;;;;;;0.40;0.40;;;14.00;99.90;;;;;;5041517;28;20245;-69
2023/08/27 06:04:56;;;;;;;0.32;0.30;;;14.00;99.90;;;;;;5082058;28;20136;-69
2023/08/27 06:07:22;;;;;;;0.50;0.50;;;14.00;99.90;;;;;;5065962;28;20132;-68
2023/08/27 06:09:47;;;;;;;1.52;1.42;;;14.00;99.90;;;;;;5046192;28;20403;-69
2023/08/27 06:12:13;;;;;;;0.28;0.20;;;14.00;99.90;;;;;;5046725;28;20076;-69
2023/08/27 06:14:38;;;;;;;0.10;0.10;;;14.00;99.90;;;;;;5051027;28;20049;-69
2023/08/27 06:17:04;;;;;;;0.20;0.20;;;14.00;99.90;;;;;;5046949;28;20072;-68
2023/08/27 06:19:30;;;;;;;1.17;0.20;;;14.00;99.90;;;;;;5051134;28;20399;-68
2023/08/27 06:21:57;;;;;;;0.30;0.10;;;14.00;99.90;;;;;;5049390;28;20049;-68
2023/08/27 06:24:22;;;;;;;0.40;0.40;;;14.00;99.90;;;;;;5083754;28;20040;-67
2023/08/27 06:26:48;;;;;;;1.20;0.15;;;14.00;99.90;;;;;;5046729;28;20045;-67
2023/08/27 06:29:13;;;;;;;0.10;0.10;;;14.00;99.90;;;;;;5041851;28;20483;-68
2023/08/27 06:31:39;;;;;;;0.20;0.20;;;14.00;99.90;;;;;;5081757;28;22108;-67
2023/08/27 06:34:05;;;;;;;1.23;0.50;;;14.00;99.90;;;;;;5043673;28;20043;-68
2023/08/27 06:36:31;;;;;;;0.05;0.05;;;14.00;99.90;;;;;;5047547;28;20037;-68
2023/08/27 06:38:57;;;;;;;0.17;0.17;;;14.00;99.90;;;;;;5032362;28;20040;-68
2023/08/27 06:41:22;;;;;;;0.10;0.10;;;14.00;99.90;;;;;;5042147;28;20043;-69
2023/08/27 06:43:48;;;;;;;0.13;0.13;;;14.00;99.90;;;;;;5047253;28;20380;-68
2023/08/27 06:46:14;;;;;;;0.10;0.10;;;14.10;99.90;;;;;;5046766;28;20037;-69
2023/08/27 06:48:40;;;;;;;0.13;0.10;;;14.10;99.90;;;;;;5080150;28;20040;-68
2023/08/27 06:51:06;;;;;;;0.30;0.25;;;14.10;99.90;;;;;;5050985;28;20041;-69
2023/08/27 06:53:31;;;;;;;0.40;0.10;;;14.10;99.90;;;;;;5034754;28;20029;-68
2023/08/27 06:55:57;;;;;;;0.20;0.20;;;14.10;99.90;;;;;;5030424;28;20514;-68
2023/08/27 06:58:24;;;;;;;0.05;0.05;;;14.10;99.90;;;;;;5043372;28;20048;-68
2023/08/27 07:00:49;;;;;;;0.57;0.57;;;14.20;99.90;;;;;;5051079;28;20132;-69
2023/08/27 07:03:15;;;;;;;0.43;0.10;;;14.20;99.90;;;;;;5044941;28;20173;-69
2023/08/27 07:05:40;;;;;;;0.47;0.25;;;14.20;99.90;;;;;;5049127;28;20044;-69
2023/08/27 07:08:06;;;;;;;0.47;0.47;;;14.30;99.90;;;;;;5049396;28;20049;-69
2023/08/27 07:10:32;;;;;;;0.35;0.10;;;14.30;99.90;;;;;;5043209;28;20069;-68
2023/08/27 07:12:57;;;;;;;0.47;0.40;;;14.30;99.90;;;;;;5039501;28;20318;-68
2023/08/27 07:15:23;;;;;;;0.52;0.20;;;14.40;99.90;;;;;;5046855;28;20074;-69
2023/08/27 07:17:48;;;;;;;0.80;0.52;;;14.40;99.90;;;;;;5045386;28;20051;-70
2023/08/27 07:20:14;;;;;;;0.20;0.20;;;14.50;99.90;;;;;;5033153;28;20041;-70
2023/08/27 07:22:40;;;;;;;1.55;0.45;;;14.50;99.90;;;;;;5046216;28;20037;-70
2023/08/27 07:25:06;;;;;;;0.20;0.20;;;14.60;99.90;;;;;;5047975;28;20084;-70
2023/08/27 07:27:33;;;;;;;0.20;0.20;;;14.70;99.90;;;;;;5045162;28;20125;-71
2023/08/27 07:29:59;;;;;;;0.40;0.30;;;14.70;99.90;;;;;;5047511;28;20052;-71
2023/08/27 07:32:24;;;;;;;0.30;0.30;;;14.80;99.90;;;;;;5047879;28;20036;-71
2023/08/27 07:34:50;;;;;;;1.95;0.88;;;14.90;99.90;;;;;;5067310;28;20044;-71
2023/08/27 07:37:16;;;;;;;0.57;0.30;;;14.90;99.90;;;;;;5059047;28;20272;-71
2023/08/27 07:39:41;;;;;;;0.30;0.28;;;15.00;99.90;;;;;;5049148;28;20037;-71
2023/08/27 07:42:07;;;;;;;0.10;0.10;;;15.10;99.90;;;;;;5048573;28;20037;-70
2023/08/27 07:44:33;;;;;;;0.25;0.25;;;15.20;99.90;;;;;;5047710;28;20037;-71
2023/08/27 07:46:58;;;;;;;0.22;0.22;;;15.30;99.90;;;;;;5048843;28;20595;-70
2023/08/27 07:49:24;;;;;;;0.35;0.35;;;15.30;99.90;;;;;;5047924;28;20040;-71
2023/08/27 07:51:50;;;;;;;0.30;0.30;;;15.40;99.90;;;;;;5048400;28;20037;-70
2023/08/27 07:54:15;;;;;;;0.52;0.47;;;15.50;99.90;;;;;;5033013;28;20037;-70
2023/08/27 07:56:41;;;;;;;1.17;0.50;;;15.60;99.90;;;;;;5047201;28;20044;-70
2023/08/27 07:59:06;;;;;;;0.20;0.20;;;15.60;99.90;;;;;;5049048;28;20048;-70
2023/08/27 08:01:32;;;;;;;3.17;1.65;;;15.70;99.90;;;;;;5049960;28;20499;-69
2023/08/27 08:03:57;;;;;;;0.43;0.25;;;15.80;99.90;;;;;;5049801;28;20384;-69
2023/08/27 08:06:25;;;;;;;0.28;0.20;;;15.90;99.90;;;;;;5049726;28;20090;-69
2023/08/27 08:08:50;;;;;;;0.88;0.55;;;15.90;99.90;;;;;;5045270;28;20121;-69
2023/08/27 08:11:16;;;;;;;0.20;0.20;;;15.90;99.90;;;;;;5046368;28;20120;-68
2023/08/27 08:13:43;;;;;;;1.30;0.55;;;16.00;99.90;;;;;;5045521;28;20094;-68
2023/08/27 08:16:09;;;;;;;0.30;0.30;;;16.10;99.90;;;;;;5051917;28;20106;-67
2023/08/27 08:18:34;;;;;;;1.33;0.32;;;16.10;99.90;;;;;;5051657;28;20040;-68
2023/08/27 08:21:00;;;;;;;0.08;0.08;;;16.20;99.90;;;;;;5052054;28;20151;-68
2023/08/27 08:23:26;;;;;;;0.20;0.20;;;16.30;99.90;;;;;;5052289;28;20087;-67
2023/08/27 08:25:51;;;;;;;0.17;0.17;;;16.40;99.90;;;;;;5050076;28;20125;-68
2023/08/27 08:31:58;;;;;;;2.28;0.82;;;16.50;99.90;;;;;;5040674;28;20530;-68
2023/08/27 08:34:24;;;;;;;0.10;0.10;;;16.60;99.90;;;;;;5068431;28;20045;-68
2023/08/27 08:36:49;;;;;;;1.13;0.25;;;16.70;99.90;;;;;;5036119;28;20041;-69
2023/08/27 08:39:15;;;;;;;0.30;0.30;;;16.70;99.90;;;;;;5050302;28;20044;-68
2023/08/27 08:41:50;;;;;;;0.80;0.73;;;16.70;99.90;;;;;;5050217;28;20138;-69
2023/08/27 08:44:49;;;;;;;0.17;0.17;;;16.70;99.90;;;;;;5048123;28;20052;-69
2023/08/27 08:47:19;;;;;;;0.28;0.28;;;16.70;99.90;;;;;;5040434;28;20379;-67
2023/08/27 08:49:48;;;;;;;0.45;0.45;;;16.70;99.90;;;;;;5049434;28;20391;-69
2023/08/27 08:52:18;;;;;;;0.52;0.52;;;16.70;99.90;;;;;;5031873;28;20112;-69
2023/08/27 08:54:48;;;;;;;0.30;0.30;;;16.80;99.90;;;;;;5037934;28;20098;-69
2023/08/27 08:57:15;;;;;;;0.38;0.38;;;17.00;99.90;;;;;;5048903;28;20507;-69
2023/08/27 08:59:41;;;;;;;0.57;0.32;;;17.10;99.90;;;;;;5051342;28;20041;-70
2023/08/27 09:02:10;;;;;;;0.47;0.47;;;17.20;99.90;;;;;;5051659;28;20040;-69
2023/08/27 09:04:36;;;;;;;1.38;0.85;;;17.30;99.90;;;;;;5051060;28;20040;-69
2023/08/27 09:07:04;;;;;;;0.35;0.35;;;17.40;99.90;;;;;;5051641;28;20049;-71
2023/08/27 09:09:31;;;;;;;3.70;1.40;;;17.50;99.90;;;;;;5047640;28;20029;-70
2023/08/27 09:11:59;;;;;;;0.47;0.47;;;17.50;99.90;;;;;;5051751;28;20053;-70
2023/08/27 09:14:24;;;;;;;0.77;0.75;;;17.60;99.90;;;;;;5072212;28;20063;-71
2023/08/27 09:17:12;;;;;;;1.42;0.43;;;17.70;99.90;;;;;;5050965;28;20127;-71
2023/08/27 09:19:38;;;;;;;0.43;0.43;;;17.80;99.90;;;;;;5033517;28;20103;-70
2023/08/27 09:22:04;;;;;;;0.32;0.15;;;17.80;99.90;;;;;;5041772;28;20036;-73
2023/08/27 09:24:29;;;;;;;0.57;0.38;;;17.80;99.90;;;;;;5048763;28;20049;-73
2023/08/27 09:26:55;;;;;;;0.55;0.55;;;17.90;99.90;;;;;;5045400;28;20041;-72
2023/08/27 09:33:03;;;;;;;0.30;0.20;;;18.20;99.90;;;;;;5036048;28;20075;-69
2023/08/27 09:35:40;;;;;;;1.10;0.68;;;18.40;99.90;;;;;;5083484;28;20078;-72
2023/08/27 09:38:10;;;;;;;0.40;0.40;;;18.50;99.90;;;;;;5051226;28;21095;-72
2023/08/27 09:40:36;;;;;;;1.17;1.08;;;18.50;99.90;;;;;;5039973;28;20494;-71
2023/08/27 09:43:11;;;;;;;1.00;1.00;;;18.60;99.90;;;;;;5088237;28;20036;-69
2023/08/27 09:45:38;;;;;;;0.30;0.30;;;18.70;99.90;;;;;;5088717;28;20053;-68
2023/08/27 09:48:05;;;;;;;0.17;0.17;;;18.70;99.90;;;;;;5079272;28;20463;-70
2023/08/27 09:50:31;;;;;;;0.30;0.30;;;18.60;99.90;;;;;;5053679;28;20120;-71
2023/08/27 09:53:13;;;;;;;0.85;0.70;;;18.40;99.90;;;;;;5053389;28;20041;-69
2023/08/27 09:55:39;;;;;;;0.30;0.30;;;18.30;99.90;;;;;;5053111;28;20037;-72
2023/08/27 09:58:05;;;;;;;1.13;0.98;;;18.20;99.90;;;;;;5045809;28;20041;-69
2023/08/27 10:00:42;;;;;;;0.75;0.45;;;18.00;99.90;;;;;;5053967;28;20110;-72
2023/08/27 10:03:08;;;;;;;0.88;0.63;;;17.80;99.90;;;;;;5047146;28;20167;-74
2023/08/27 10:05:34;;;;;;;2.05;1.20;;;17.60;99.90;;;;;;5034357;28;20124;-71
2023/08/27 10:08:16;;;;;;;0.57;0.57;;;17.40;99.90;;;;;;5050451;28;20041;-69
2023/08/27 10:10:41;;;;;;;2.42;1.25;;;17.30;99.90;;;;;;5053874;28;20434;-69
2023/08/27 10:13:10;;;;;;;2.78;1.02;;;17.20;99.90;;;;;;5048579;28;20037;-69
2023/08/27 10:15:36;;;;;;;0.90;0.52;;;17.10;99.90;;;;;;5087190;28;20045;-68
2023/08/27 10:18:04;;;;;;;1.02;0.50;;;17.00;99.90;;;;;;5086477;28;20396;-68
2023/08/27 10:20:31;;;;;;;0.40;0.40;;;16.80;99.90;;;;;;5054351;28;20048;-69
2023/08/27 10:22:57;;;;;;;0.63;0.63;;;16.80;99.90;;;;;;5051292;28;20045;-67
2023/08/27 10:25:24;;;;;;;0.68;0.68;;;16.70;99.90;;;;;;5053438;28;20040;-69
2023/08/27 10:27:51;;;;;;;1.40;1.20;;;16.70;99.90;;;;;;5052376;28;20041;-67
2023/08/27 10:30:18;;;;;;;2.30;0.50;;;16.70;99.90;;;;;;5054748;28;20053;-69
2023/08/27 10:32:47;;;;;;;1.52;1.38;;;16.60;99.90;;;;;;5052055;28;20395;-67
2023/08/27 10:35:13;;;;;;;0.28;0.28;;;16.60;99.90;;;;;;5052607;28;20522;-68
2023/08/27 10:37:57;;;;;;;0.70;0.63;;;16.60;99.90;;;;;;5050865;28;20037;-68
2023/08/27 10:40:26;;;;;;;2.03;1.30;;;16.80;99.90;;;;;;5052637;28;20060;-69
2023/08/27 10:43:07;;;;;;;1.65;1.40;;;17.00;99.90;;;;;;5053233;28;20037;-67
2023/08/27 10:45:36;;;;;;;2.85;0.88;;;17.20;99.90;;;;;;5036420;28;20045;-69
2023/08/27 10:48:22;;;;;;;0.80;0.77;;;17.20;99.90;;;;;;5047392;28;20392;-69
2023/08/27 10:50:48;;;;;;;1.13;0.98;;;17.20;99.90;;;;;;5032682;28;20060;-70
2023/08/27 10:53:15;;;;;;;1.15;0.57;;;17.20;99.90;;;;;;5034872;28;20041;-71
2023/08/27 10:55:50;;;;;;;0.93;0.77;;;17.20;99.90;;;;;;5052361;28;20124;-69
2023/08/27 10:58:17;;;;;;;0.65;0.47;;;17.20;99.90;;;;;;5049090;28;20498;-68
2023/08/27 11:01:04;;;;;;;1.15;0.75;;;17.30;99.90;;;;;;5032968;28;20369;-69
2023/08/27 11:03:56;;;;;;;3.72;1.55;;;17.20;99.90;;;;;;5037137;28;20183;-72
2023/08/27 11:06:45;;;;;;;1.02;1.02;;;17.20;99.90;;;;;;5050799;28;20095;-69
2023/08/27 11:09:48;;;;;;;0.40;0.40;;;17.10;99.90;;;;;;5075014;28;20435;-70
2023/08/27 11:12:24;;;;;;;0.85;0.85;;;17.10;99.90;;;;;;5051080;28;20037;-69
2023/08/27 11:14:50;;;;;;;2.55;1.25;;;16.90;99.90;;;;;;5039297;28;20049;-69
2023/08/27 11:17:39;;;;;;;2.58;1.08;;;16.90;99.90;;;;;;5042232;28;20048;-69
2023/08/27 11:20:25;;;;;;;0.52;0.40;;;16.80;99.90;;;;;;5052011;28;20056;-72
2023/08/27 11:23:08;;;;;;;1.27;1.17;;;16.80;99.90;;;;;;5051973;28;20041;-73
2023/08/27 11:25:36;;;;;;;0.63;0.45;;;16.80;99.90;;;;;;5086256;28;20037;-70
2023/08/27 11:28:04;;;;;;;0.80;0.32;;;16.80;99.90;;;;;;5086147;28;20083;-71
2023/08/27 11:30:31;;;;;;;1.08;1.08;;;16.80;99.90;;;;;;5050532;28;20048;-71
2023/08/27 11:32:57;;;;;;;0.45;0.38;;;16.80;99.90;;;;;;5051101;28;20036;-71
2023/08/27 11:35:27;;;;;;;0.40;0.40;;;16.80;99.90;;;;;;5052670;28;20098;-71
2023/08/27 11:38:10;;;;;;;1.70;1.27;;;16.80;99.90;;;;;;5049348;28;20090;-73
2023/08/27 11:40:36;;;;;;;1.02;0.93;;;16.80;99.90;;;;;;5052357;28;20047;-74
2023/08/27 11:43:02;;;;;;;3.65;1.40;;;16.80;99.90;;;;;;5041492;28;20136;-73
2023/08/27 11:45:37;;;;;;;0.82;0.80;;;16.80;99.90;;;;;;5052270;28;20037;-75
2023/08/27 11:48:08;;;;;;;2.65;0.98;;;16.90;99.90;;;;;;5050266;28;20120;-72
2023/08/27 11:50:37;;;;;;;1.05;0.70;;;16.90;99.90;;;;;;5065417;28;20377;-69
2023/08/27 11:53:04;;;;;;;0.10;0.10;;;17.00;99.90;;;;;;5042404;28;20555;-73
2023/08/27 11:55:31;;;;;;;0.40;0.40;;;16.80;99.90;;;;;;5050128;28;20083;-69
2023/08/27 11:57:59;;;;;;;0.30;0.30;;;16.80;99.90;;;;;;5043840;28;20044;-71
2023/08/27 12:00:25;;;;;;;0.10;0.10;;;16.70;99.90;;;;;;5048793;28;20395;-73
2023/08/27 12:02:51;;;;;;;0.00;0.00;;;16.60;99.90;;;;;;5046585;28;20033;-69
2023/08/27 12:05:18;;;;;;;0.10;0.10;;;16.60;99.90;;;;;;5045974;28;20076;-74
2023/08/27 12:07:43;;;;;;;0.10;0.10;;;16.50;99.90;;;;;;5041331;28;20395;-68
2023/08/27 12:10:11;;;;;;;0.10;0.10;;;16.40;99.90;;;;;;5046607;28;20048;-76
2023/08/27 12:12:41;;;;;;;0.10;0.10;;;16.40;99.90;;;;;;5050161;28;20045;-68
2023/08/27 12:15:08;;;;;;;0.40;0.40;;;16.30;99.90;;;;;;5051251;28;20167;-69
2023/08/27 12:17:35;;;;;;;0.20;0.20;;;16.30;99.90;;;;;;5050580;28;20052;-70
2023/08/27 12:20:05;;;;;;;0.10;0.10;;;16.40;99.90;;;;;;5050782;28;20045;-72
2023/08/27 12:22:51;;;;;;;0.00;0.00;;;16.40;99.90;;;;;;5050473;28;20039;-72
2023/08/27 12:25:54;;;;;;;0.10;0.10;;;16.40;99.90;;;;;;5077945;28;20048;-68
2023/08/27 12:28:21;;;;;;;0.10;0.10;;;16.40;99.90;;;;;;5044668;28;20440;-70
2023/08/27 12:30:54;;;;;;;0.75;0.32;;;16.40;99.90;;;;;;5087414;28;20457;-74
2023/08/27 12:33:34;;;;;;;0.08;0.08;;;16.50;99.90;;;;;;5054243;28;20048;-73
2023/08/27 12:36:04;;;;;;;0.08;0.08;;;16.50;99.90;;;;;;5049794;28;20059;-72
2023/08/27 12:38:30;;;;;;;0.10;0.10;;;16.60;99.90;;;;;;5042932;28;20037;-75
2023/08/27 12:40:55;;;;;;;0.00;0.00;;;16.50;99.90;;;;;;5081221;28;20097;-75
2023/08/27 12:43:21;;;;;;;0.00;0.00;;;16.60;99.90;;;;;;5046214;28;20040;-75
2023/08/27 12:45:46;;;;;;;0.73;0.73;;;16.60;99.90;;;;;;5044454;28;20040;-76
2023/08/27 12:48:14;;;;;;;0.10;0.10;;;16.60;99.90;;;;;;5040541;28;20033;-70
2023/08/27 12:50:39;;;;;;;0.10;0.10;;;16.60;99.90;;;;;;5051518;28;20468;-69
2023/08/27 12:53:08;;;;;;;0.13;0.13;;;16.50;99.90;;;;;;5045868;28;20187;-70
2023/08/27 12:55:34;;;;;;;0.20;0.10;;;16.50;99.90;;;;;;5049321;28;20037;-69
2023/08/27 12:57:59;;;;;;;0.03;0.03;;;16.20;99.90;;;;;;5046303;28;20036;-69
2023/08/27 13:00:29;;;;;;;0.10;0.10;;;16.10;99.90;;;;;;5046320;28;20069;-69
2023/08/27 13:02:54;;;;;;;5.78;0.43;;;15.90;99.90;;;;;;5082685;28;20040;-70